createdAt,value
2018-06-02T00:00:19.112Z,947.72
2018-06-02T00:01:18.995Z,947.73
2018-06-02T00:02:18.906Z,947.74
2018-06-02T00:03:18.812Z,947.69
2018-06-02T00:04:18.813Z,947.68
2018-06-02T00:05:18.664Z,947.69
2018-06-02T00:06:18.540Z,947.68
2018-06-02T00:07:18.456Z,947.70
2018-06-02T00:08:18.369Z,947.71
2018-06-02T00:10:17.998Z,947.65
2018-06-02T00:11:32.687Z,947.65
2018-06-02T00:13:08.542Z,947.65
2018-06-02T00:22:42.707Z,947.65
2018-06-02T00:23:42.579Z,947.66
2018-06-02T00:24:42.490Z,947.65
2018-06-02T00:25:42.440Z,947.67
2018-06-02T00:26:42.606Z,947.67
2018-06-02T00:27:42.217Z,947.65
2018-06-02T00:28:42.131Z,947.65
2018-06-02T00:29:42.037Z,947.63
2018-06-02T00:30:41.979Z,947.61
2018-06-02T00:31:41.860Z,947.59
2018-06-02T00:32:41.768Z,947.60
2018-06-02T00:33:41.760Z,947.61
2018-06-02T00:34:41.581Z,947.58
2018-06-02T00:35:41.531Z,947.59
2018-06-02T00:36:41.405Z,947.61
2018-06-02T00:37:41.313Z,947.62
2018-06-02T00:38:41.220Z,947.58
2018-06-02T00:39:41.129Z,947.64
2018-06-02T00:40:41.167Z,947.62
2018-06-02T00:41:40.947Z,947.62
2018-06-02T00:42:40.859Z,947.60
2018-06-02T00:43:40.767Z,947.62
2018-06-02T00:44:40.680Z,947.61
2018-06-02T00:45:40.619Z,947.58
2018-06-02T00:46:40.497Z,947.61
2018-06-02T00:47:40.495Z,947.62
2018-06-02T00:48:40.318Z,947.60
2018-06-02T00:49:40.241Z,947.60
2018-06-02T00:50:40.164Z,947.61
2018-06-02T00:51:40.043Z,947.57
2018-06-02T00:52:39.951Z,947.57
2018-06-02T00:53:39.863Z,947.61
2018-06-02T00:54:39.868Z,947.62
2018-06-02T00:55:39.714Z,947.62
2018-06-02T00:56:39.588Z,947.69
2018-06-02T00:57:39.501Z,947.64
2018-06-02T00:58:39.408Z,947.66
2018-06-02T00:59:39.316Z,947.65
2018-06-02T01:00:39.254Z,947.66
2018-06-02T01:01:39.233Z,947.61
2018-06-02T01:02:39.048Z,947.63
2018-06-02T01:03:38.956Z,947.64
2018-06-02T01:04:38.869Z,947.66
2018-06-02T01:05:38.808Z,947.63
2018-06-02T01:06:38.697Z,947.62
2018-06-02T01:07:38.590Z,947.59
2018-06-02T01:08:38.589Z,947.61
2018-06-02T01:09:38.413Z,947.59
2018-06-02T01:10:38.329Z,947.57
2018-06-02T01:11:38.260Z,947.57
2018-06-02T01:12:38.141Z,947.61
2018-06-02T01:13:38.049Z,947.59
2018-06-02T01:14:37.957Z,947.59
2018-06-02T01:15:37.961Z,947.58
2018-06-02T01:16:37.808Z,947.59
2018-06-02T01:17:37.682Z,947.59
2018-06-02T01:18:37.594Z,947.58
2018-06-02T01:19:37.502Z,947.57
2018-06-02T01:20:37.415Z,947.58
2018-06-02T01:21:37.350Z,947.54
2018-06-02T01:22:37.322Z,947.51
2018-06-02T01:23:37.139Z,947.48
2018-06-02T01:24:37.052Z,947.49
2018-06-02T01:25:36.963Z,947.51
2018-06-02T01:26:36.897Z,947.53
2018-06-02T01:27:36.793Z,947.50
2018-06-02T01:28:36.687Z,947.50
2018-06-02T01:29:36.689Z,947.47
2018-06-02T01:30:36.503Z,947.48
2018-06-02T01:31:36.445Z,947.47
2018-06-02T01:32:36.322Z,947.49
2018-06-02T01:33:36.232Z,947.49
2018-06-02T01:34:36.139Z,947.49
2018-06-02T01:35:36.881Z,947.49
2018-06-02T01:36:36.078Z,947.47
2018-06-02T01:37:35.872Z,947.45
2018-06-02T01:38:35.777Z,947.49
2018-06-02T01:39:35.685Z,947.47
2018-06-02T01:40:35.594Z,947.47
2018-06-02T01:41:35.533Z,947.46
2018-06-02T01:42:35.417Z,947.46
2018-06-02T01:43:35.414Z,947.45
2018-06-02T01:44:35.231Z,947.45
2018-06-02T01:45:35.144Z,947.42
2018-06-02T01:46:35.078Z,947.45
2018-06-02T01:47:34.958Z,947.46
2018-06-02T01:48:34.865Z,947.48
2018-06-02T01:49:34.773Z,947.51
2018-06-02T01:50:34.772Z,947.49
2018-06-02T01:51:34.624Z,947.50
2018-06-02T01:52:34.503Z,947.52
2018-06-02T01:53:34.411Z,947.53
2018-06-02T01:54:34.320Z,947.51
2018-06-02T01:55:34.234Z,947.51
2018-06-02T01:56:34.196Z,947.53
2018-06-02T01:57:34.052Z,947.52
2018-06-02T01:58:33.952Z,947.51
2018-06-02T01:59:33.864Z,947.50
2018-06-02T02:00:33.774Z,947.50
2018-06-02T02:04:22.900Z,947.53
2018-06-02T02:05:22.773Z,947.53
2018-06-02T02:06:22.712Z,947.52
2018-06-02T02:07:22.845Z,947.51
2018-06-02T02:08:22.499Z,947.49
2018-06-02T02:09:22.410Z,947.50
2018-06-02T02:10:22.322Z,947.50
2018-06-02T02:11:22.236Z,947.49
2018-06-02T02:12:22.168Z,947.50
2018-06-02T02:13:22.062Z,947.50
2018-06-02T02:14:22.087Z,947.52
2018-06-02T02:15:21.870Z,947.56
2018-06-02T02:16:21.778Z,947.52
2018-06-02T02:17:21.715Z,947.52
2018-06-02T02:18:21.591Z,947.50
2018-06-02T02:19:21.499Z,947.54
2018-06-02T02:20:21.409Z,947.54
2018-06-02T02:21:21.411Z,947.60
2018-06-02T02:22:21.257Z,947.54
2018-06-02T02:23:21.138Z,947.54
2018-06-02T02:24:21.054Z,947.56
2018-06-02T02:25:20.955Z,947.57
2018-06-02T02:26:20.863Z,947.55
2018-06-02T02:27:20.892Z,947.54
2018-06-02T02:28:20.678Z,947.52
2018-06-02T02:29:20.591Z,947.56
2018-06-02T02:30:20.501Z,947.54
2018-06-02T02:31:20.408Z,947.57
2018-06-02T02:32:20.345Z,947.55
2018-06-02T02:33:20.225Z,947.52
2018-06-02T02:34:20.136Z,947.51
2018-06-02T02:35:20.148Z,947.51
2018-06-02T02:36:19.951Z,947.54
2018-06-02T02:37:19.892Z,947.53
2018-06-02T02:38:19.770Z,947.51
2018-06-02T02:39:19.682Z,947.49
2018-06-02T02:40:19.590Z,947.51
2018-06-02T02:41:19.504Z,947.51
2018-06-02T02:42:19.435Z,947.52
2018-06-02T02:43:19.319Z,947.51
2018-06-02T02:44:19.226Z,947.52
2018-06-02T02:45:19.136Z,947.55
2018-06-02T02:46:19.046Z,947.54
2018-06-02T02:47:18.985Z,947.53
2018-06-02T02:48:18.867Z,947.54
2018-06-02T02:49:18.771Z,947.54
2018-06-02T02:50:18.679Z,947.54
2018-06-02T02:51:18.592Z,947.55
2018-06-02T02:52:18.530Z,947.56
2018-06-02T02:53:18.408Z,947.58
2018-06-02T02:54:18.316Z,947.57
2018-06-02T02:55:18.248Z,947.57
2018-06-02T02:56:18.136Z,947.62
2018-06-02T02:57:18.080Z,947.62
2018-06-02T02:58:17.952Z,947.60
2018-06-02T02:59:17.863Z,947.62
2018-06-02T03:00:17.775Z,947.59
2018-06-02T03:01:17.726Z,947.59
2018-06-02T03:02:17.620Z,947.58
2018-06-02T03:03:17.506Z,947.57
2018-06-02T03:04:17.411Z,947.57
2018-06-02T03:05:17.317Z,947.57
2018-06-02T03:06:17.231Z,947.57
2018-06-02T03:07:17.166Z,947.55
2018-06-02T03:08:17.045Z,947.59
2018-06-02T03:09:16.957Z,947.61
2018-06-02T03:10:17.510Z,947.62
2018-06-02T03:11:16.773Z,947.61
2018-06-02T03:12:16.686Z,947.68
2018-06-02T03:13:16.625Z,947.73
2018-06-02T03:14:16.501Z,947.71
2018-06-02T03:15:16.418Z,947.71
2018-06-02T03:16:16.321Z,947.70
2018-06-02T03:17:16.234Z,947.68
2018-06-02T03:18:16.170Z,947.74
2018-06-02T03:19:16.051Z,947.75
2018-06-02T03:20:15.958Z,947.75
2018-06-02T03:21:15.868Z,947.79
2018-06-02T03:22:15.781Z,947.79
2018-06-02T03:23:15.718Z,947.78
2018-06-02T03:24:15.606Z,947.77
2018-06-02T03:25:15.506Z,947.79
2018-06-02T03:26:15.416Z,947.78
2018-06-02T03:27:15.325Z,947.77
2018-06-02T03:28:15.268Z,947.78
2018-06-02T03:29:15.145Z,947.77
2018-06-02T03:30:15.064Z,947.81
2018-06-02T03:31:14.965Z,947.84
2018-06-02T03:32:14.878Z,947.83
2018-06-02T03:33:14.818Z,947.81
2018-06-02T03:34:14.693Z,947.82
2018-06-02T03:35:14.611Z,947.80
2018-06-02T03:36:14.516Z,947.82
2018-06-02T03:37:14.426Z,947.81
2018-06-02T03:38:14.366Z,947.80
2018-06-02T03:39:14.243Z,947.81
2018-06-02T03:40:14.155Z,947.83
2018-06-02T03:41:14.067Z,947.81
2018-06-02T03:42:13.980Z,947.83
2018-06-02T03:43:13.916Z,947.79
2018-06-02T03:44:13.798Z,947.81
2018-06-02T03:45:13.709Z,947.81
2018-06-02T03:46:13.617Z,947.83
2018-06-02T03:47:13.537Z,947.84
2018-06-02T03:48:13.467Z,947.83
2018-06-02T03:49:13.347Z,947.78
2018-06-02T03:50:13.259Z,947.81
2018-06-02T03:51:13.171Z,947.79
2018-06-02T03:52:13.078Z,947.78
2018-06-02T03:53:13.021Z,947.84
2018-06-02T03:54:12.901Z,947.85
2018-06-02T03:55:12.813Z,947.86
2018-06-02T03:56:12.719Z,947.88
2018-06-02T03:57:12.630Z,947.83
2018-06-02T03:58:12.574Z,947.85
2018-06-02T03:59:12.454Z,947.86
2018-06-02T04:00:12.369Z,947.89
2018-06-02T04:01:12.276Z,947.88
2018-06-02T04:02:12.187Z,947.89
2018-06-02T04:03:12.124Z,947.88
2018-06-02T04:04:12.007Z,947.89
2018-06-02T04:05:11.922Z,947.90
2018-06-02T04:06:11.920Z,947.90
2018-06-02T04:07:11.740Z,947.94
2018-06-02T04:08:11.679Z,947.86
2018-06-02T04:09:11.563Z,947.92
2018-06-02T04:10:11.474Z,947.96
2018-06-02T04:11:11.382Z,947.95
2018-06-02T04:12:11.295Z,947.95
2018-06-02T04:13:11.326Z,948.01
2018-06-02T04:14:11.115Z,948.01
2018-06-02T04:15:11.029Z,947.99
2018-06-02T04:16:10.938Z,947.99
2018-06-02T04:17:10.849Z,947.99
2018-06-02T04:18:10.763Z,948.07
2018-06-02T04:19:10.718Z,948.07
2018-06-02T04:20:10.583Z,948.05
2018-06-02T04:21:10.496Z,948.13
2018-06-02T04:22:10.405Z,948.03
2018-06-02T04:23:10.320Z,948.01
2018-06-02T04:24:10.258Z,948.04
2018-06-02T04:25:10.138Z,948.07
2018-06-02T04:26:10.051Z,948.05
2018-06-02T04:27:10.057Z,948.02
2018-06-02T04:28:09.875Z,948.02
2018-06-02T04:29:09.815Z,948.01
2018-06-02T04:30:09.698Z,948.04
2018-06-02T04:31:09.609Z,948.00
2018-06-02T04:32:09.520Z,948.01
2018-06-02T04:33:09.430Z,947.99
2018-06-02T04:34:09.462Z,948.01
2018-06-02T04:35:09.249Z,948.04
2018-06-02T04:36:11.031Z,948.07
2018-06-02T04:37:09.075Z,948.07
2018-06-02T04:38:08.984Z,948.11
2018-06-02T04:39:08.930Z,948.12
2018-06-02T04:40:08.808Z,948.11
2018-06-02T04:41:08.719Z,948.14
2018-06-02T04:42:08.631Z,948.10
2018-06-02T04:43:08.543Z,948.13
2018-06-02T04:44:08.483Z,948.15
2018-06-02T04:45:08.365Z,948.14
2018-06-02T04:46:08.277Z,948.14
2018-06-02T04:47:08.192Z,948.10
2018-06-02T04:48:08.188Z,948.13
2018-06-02T04:49:08.043Z,948.11
2018-06-02T04:50:07.922Z,948.15
2018-06-02T04:51:07.834Z,948.12
2018-06-02T04:52:07.747Z,948.12
2018-06-02T04:53:08.536Z,948.14
2018-06-02T04:54:07.594Z,948.18
2018-06-02T04:55:07.577Z,948.17
2018-06-02T04:56:07.393Z,948.17
2018-06-02T04:57:07.301Z,948.22
2018-06-02T04:58:07.214Z,948.18
2018-06-02T04:59:07.162Z,948.17
2018-06-02T05:00:07.039Z,948.15
2018-06-02T05:01:06.949Z,948.15
2018-06-02T05:02:06.971Z,948.14
2018-06-02T05:03:06.774Z,948.13
2018-06-02T05:04:06.717Z,948.08
2018-06-02T05:05:06.599Z,948.16
2018-06-02T05:06:06.511Z,948.18
2018-06-02T05:07:06.426Z,948.19
2018-06-02T05:08:06.333Z,948.15
2018-06-02T05:09:06.371Z,948.18
2018-06-02T05:10:06.158Z,948.18
2018-06-02T05:11:06.074Z,948.21
2018-06-02T05:12:05.981Z,948.24
2018-06-02T05:13:05.895Z,948.27
2018-06-02T05:14:05.839Z,948.35
2018-06-02T05:15:05.730Z,948.39
2018-06-02T05:16:05.721Z,948.38
2018-06-02T05:17:05.546Z,948.35
2018-06-02T05:18:05.459Z,948.31
2018-06-02T05:19:05.399Z,948.32
2018-06-02T05:20:05.284Z,948.45
2018-06-02T05:21:05.191Z,948.43
2018-06-02T05:22:05.104Z,948.36
2018-06-02T05:23:05.120Z,948.40
2018-06-02T05:24:04.927Z,948.43
2018-06-02T05:25:04.871Z,948.49
2018-06-02T05:26:04.753Z,948.51
2018-06-02T05:27:04.665Z,948.52
2018-06-02T05:28:04.573Z,948.50
2018-06-02T05:29:04.537Z,948.51
2018-06-02T05:30:04.434Z,948.53
2018-06-02T05:31:04.313Z,948.55
2018-06-02T05:32:04.225Z,948.59
2018-06-02T05:33:04.140Z,948.54
2018-06-02T05:34:04.052Z,948.52
2018-06-02T05:35:03.992Z,948.66
2018-06-02T05:36:03.876Z,948.68
2018-06-02T05:37:03.883Z,948.60
2018-06-02T05:38:04.551Z,948.59
2018-06-02T05:39:03.610Z,948.67
2018-06-02T05:40:05.051Z,948.75
2018-06-02T05:41:03.440Z,948.76
2018-06-02T05:42:03.350Z,948.63
2018-06-02T05:43:03.381Z,948.63
2018-06-02T05:44:03.174Z,948.65
2018-06-02T05:45:03.118Z,948.66
2018-06-02T05:46:03.062Z,948.70
2018-06-02T05:47:02.917Z,948.80
2018-06-02T05:48:02.823Z,948.83
2018-06-02T05:49:04.597Z,948.87
2018-06-02T05:50:02.683Z,948.94
2018-06-02T05:51:02.564Z,948.77
2018-06-02T05:52:02.474Z,948.60
2018-06-02T05:53:02.389Z,948.65
2018-06-02T05:54:02.303Z,948.69
2018-06-02T05:55:02.245Z,948.62
2018-06-02T05:56:02.132Z,948.62
2018-06-02T05:57:02.042Z,948.69
2018-06-02T05:58:01.953Z,948.83
2018-06-02T05:59:01.865Z,948.65
2018-06-02T06:00:01.810Z,948.52
2018-06-02T06:01:01.696Z,948.69
2018-06-02T06:02:01.604Z,948.58
2018-06-02T06:03:01.519Z,948.50
2018-06-02T06:04:01.433Z,948.41
2018-06-02T06:05:01.376Z,948.47
2018-06-02T06:06:01.261Z,948.40
2018-06-02T06:07:01.174Z,948.41
2018-06-02T06:08:01.086Z,948.44
2018-06-02T06:09:00.997Z,948.52
2018-06-02T06:10:00.941Z,948.47
2018-06-02T06:11:00.824Z,948.44
2018-06-02T06:12:00.736Z,948.42
2018-06-02T06:13:00.650Z,948.47
2018-06-02T06:14:00.565Z,948.42
2018-06-02T06:15:00.507Z,948.47
2018-06-02T06:16:00.399Z,948.50
2018-06-02T06:17:00.305Z,948.47
2018-06-02T06:18:00.214Z,948.42
2018-06-02T06:19:00.130Z,948.40
2018-06-02T06:20:00.072Z,948.37
2018-06-02T06:20:59.959Z,948.47
2018-06-02T06:21:59.868Z,948.51
2018-06-02T06:22:59.784Z,948.55
2018-06-02T06:23:59.695Z,948.77
2018-06-02T06:24:59.610Z,948.97
2018-06-02T06:25:59.554Z,948.94
2018-06-02T06:26:59.489Z,948.73
2018-06-02T06:27:59.350Z,948.71
2018-06-02T06:28:59.262Z,948.98
2018-06-02T06:29:59.205Z,948.97
2018-06-02T06:30:59.089Z,948.77
2018-06-02T06:31:59.003Z,948.72
2018-06-02T06:32:58.917Z,948.78
2018-06-02T06:33:58.828Z,948.85
2018-06-02T06:34:58.746Z,948.82
2018-06-02T06:35:58.688Z,948.71
2018-06-02T06:36:58.566Z,948.63
2018-06-02T06:37:58.485Z,948.78
2018-06-02T06:38:58.394Z,948.92
2018-06-02T06:39:58.309Z,948.99
2018-06-02T06:40:58.252Z,948.86
2018-06-02T06:41:58.136Z,948.83
2018-06-02T06:42:58.050Z,948.73
2018-06-02T06:43:57.963Z,948.68
2018-06-02T06:44:57.879Z,948.77
2018-06-02T06:45:58.583Z,948.73
2018-06-02T06:46:57.704Z,948.71
2018-06-02T06:47:57.615Z,948.77
2018-06-02T06:48:57.533Z,948.66
2018-06-02T06:49:57.446Z,948.64
2018-06-02T06:50:57.391Z,948.89
2018-06-02T06:51:57.277Z,948.89
2018-06-02T06:52:57.313Z,948.83
2018-06-02T06:53:57.102Z,949.02
2018-06-02T06:54:57.636Z,949.00
2018-06-02T06:55:56.960Z,955.55
2018-06-02T06:56:56.841Z,948.73
2018-06-02T06:57:56.758Z,949.07
2018-06-02T06:58:56.675Z,949.32
2018-06-02T06:59:56.593Z,949.13
2018-06-02T07:00:56.531Z,952.34
2018-06-02T07:01:57.133Z,951.93
2018-06-02T07:02:57.122Z,950.47
2018-06-02T07:03:57.077Z,949.32
2018-06-02T07:04:56.156Z,949.97
2018-06-02T07:05:56.101Z,949.74
2018-06-02T07:06:56.080Z,949.59
2018-06-02T07:07:55.900Z,949.01
2018-06-02T07:08:55.827Z,952.19
2018-06-02T07:09:55.731Z,949.61
2018-06-02T07:10:55.680Z,952.17
2018-06-02T07:11:55.585Z,949.87
2018-06-02T07:12:55.478Z,949.58
2018-06-02T07:13:55.480Z,949.80
2018-06-02T07:14:55.304Z,952.68
2018-06-02T07:15:55.253Z,952.81
2018-06-02T07:16:55.136Z,950.01
2018-06-02T07:17:55.055Z,949.55
2018-06-02T07:18:54.970Z,950.43
2018-06-02T07:19:54.887Z,950.68
2018-06-02T07:20:54.925Z,952.09
2018-06-02T07:21:54.717Z,952.15
2018-06-02T07:22:54.634Z,949.43
2018-06-02T07:23:54.549Z,951.42
2018-06-02T07:24:54.489Z,951.17
2018-06-02T07:25:54.410Z,950.82
2018-06-02T07:26:54.300Z,951.72
2018-06-02T07:27:54.308Z,952.34
2018-06-02T07:28:54.132Z,953.26
2018-06-02T07:29:54.048Z,949.06
2018-06-02T07:30:54.591Z,954.58
2018-06-02T07:31:53.882Z,953.82
2018-06-02T07:32:53.802Z,949.80
2018-06-02T07:33:53.720Z,949.84
2018-06-02T07:34:53.736Z,949.22
2018-06-02T07:35:53.558Z,949.19
2018-06-02T07:36:53.501Z,949.06
2018-06-02T07:37:53.393Z,949.09
2018-06-02T07:38:53.306Z,952.34
2018-06-02T07:39:53.225Z,948.94
2018-06-02T07:40:53.146Z,948.94
2018-06-02T07:41:53.190Z,949.05
2018-06-02T07:42:52.979Z,949.88
2018-06-02T07:43:52.896Z,949.12
2018-06-02T07:44:52.812Z,951.15
2018-06-02T07:45:52.733Z,950.61
2018-06-02T07:46:52.681Z,949.27
2018-06-02T07:47:52.566Z,951.81
2018-06-02T07:48:52.584Z,949.46
2018-06-02T07:49:52.455Z,949.11
2018-06-02T07:50:52.325Z,949.04
2018-06-02T07:51:52.268Z,949.03
2018-06-02T07:52:52.154Z,954.43
2018-06-02T07:53:52.080Z,949.41
2018-06-02T07:54:51.993Z,949.19
2018-06-02T07:55:52.000Z,948.94
2018-06-02T07:56:53.604Z,948.80
2018-06-02T07:57:51.743Z,948.77
2018-06-02T07:58:51.659Z,948.96
2018-06-02T07:59:51.578Z,949.81
2018-06-02T08:00:51.495Z,949.46
2018-06-02T08:01:51.445Z,949.44
2018-06-02T08:02:51.422Z,949.36
2018-06-02T08:03:51.245Z,949.63
2018-06-02T08:04:51.161Z,949.24
2018-06-02T08:05:51.084Z,949.47
2018-06-02T08:06:51.027Z,949.13
2018-06-02T08:07:50.915Z,949.04
2018-06-02T08:08:50.831Z,948.91
2018-06-02T08:09:50.845Z,948.88
2018-06-02T08:10:50.670Z,948.96
2018-06-02T08:11:50.616Z,949.01
2018-06-02T08:12:50.498Z,948.91
2018-06-02T08:13:50.414Z,948.90
2018-06-02T08:14:50.334Z,949.14
2018-06-02T08:15:51.160Z,949.96
2018-06-02T08:16:50.287Z,949.64
2018-06-02T08:17:50.084Z,949.33
2018-06-02T08:18:49.999Z,949.42
2018-06-02T08:19:49.916Z,949.43
2018-06-02T08:20:49.833Z,949.19
2018-06-02T08:21:49.783Z,949.11
2018-06-02T08:22:50.614Z,949.24
2018-06-02T08:23:49.868Z,949.08
2018-06-02T08:24:49.501Z,948.96
2018-06-02T08:25:49.416Z,948.88
2018-06-02T08:26:49.369Z,948.92
2018-06-02T08:27:49.249Z,949.03
2018-06-02T08:28:49.165Z,949.11
2018-06-02T08:29:49.098Z,948.99
2018-06-02T08:30:49.000Z,948.97
2018-06-02T08:31:48.953Z,948.88
2018-06-02T08:32:49.673Z,948.89
2018-06-02T08:33:48.748Z,948.83
2018-06-02T08:34:48.669Z,948.78
2018-06-02T08:35:48.585Z,948.77
2018-06-02T08:36:48.538Z,948.79
2018-06-02T08:37:48.511Z,948.80
2018-06-02T08:38:48.331Z,948.73
2018-06-02T08:39:48.249Z,948.77
2018-06-02T08:40:48.168Z,948.80
2018-06-02T08:41:48.080Z,948.90
2018-06-02T08:42:48.025Z,948.98
2018-06-02T08:43:48.032Z,948.98
2018-06-02T08:44:47.827Z,948.98
2018-06-02T08:45:47.741Z,948.99
2018-06-02T08:46:47.659Z,948.96
2018-06-02T08:47:47.599Z,948.91
2018-06-02T08:48:47.489Z,948.92
2018-06-02T08:49:47.406Z,948.88
2018-06-02T08:50:47.319Z,948.90
2018-06-02T08:51:47.261Z,948.90
2018-06-02T08:52:47.180Z,948.94
2018-06-02T08:53:47.070Z,949.02
2018-06-02T08:54:46.984Z,949.07
2018-06-02T08:55:46.900Z,949.12
2018-06-02T08:56:46.811Z,949.08
2018-06-02T08:57:47.678Z,949.22
2018-06-02T08:58:46.644Z,949.31
2018-06-02T08:59:47.679Z,949.40
2018-06-02T09:00:46.475Z,949.31
2018-06-02T09:01:46.391Z,949.29
2018-06-02T09:02:46.335Z,949.28
2018-06-02T09:03:46.222Z,949.18
2018-06-02T09:04:46.139Z,949.14
2018-06-02T09:05:46.054Z,949.81
2018-06-02T09:06:45.969Z,949.83
2018-06-02T09:07:45.916Z,949.43
2018-06-02T09:08:45.802Z,949.35
2018-06-02T09:09:45.716Z,949.22
2018-06-02T09:10:45.635Z,949.08
2018-06-02T09:11:45.550Z,949.08
2018-06-02T09:12:45.496Z,949.09
2018-06-02T09:13:46.127Z,949.07
2018-06-02T09:14:45.299Z,949.06
2018-06-02T09:15:45.211Z,949.08
2018-06-02T09:16:45.130Z,949.23
2018-06-02T09:17:45.077Z,949.31
2018-06-02T09:18:44.961Z,949.28
2018-06-02T09:19:44.878Z,949.41
2018-06-02T09:20:44.793Z,950.29
2018-06-02T09:21:44.724Z,950.54
2018-06-02T09:22:44.662Z,950.85
2018-06-02T09:23:44.546Z,951.28
2018-06-02T09:24:44.459Z,949.86
2018-06-02T09:25:44.383Z,950.89
2018-06-02T09:26:44.290Z,949.61
2018-06-02T09:27:44.239Z,949.52
2018-06-02T09:28:44.434Z,949.39
2018-06-02T09:29:44.042Z,949.20
2018-06-02T09:30:43.961Z,949.11
2018-06-02T09:31:43.878Z,949.00
2018-06-02T09:32:43.826Z,949.02
2018-06-02T09:33:43.803Z,949.00
2018-06-02T09:34:43.630Z,949.05
2018-06-02T09:35:43.546Z,949.16
2018-06-02T09:36:43.464Z,949.18
2018-06-02T09:37:43.414Z,949.19
2018-06-02T09:38:43.300Z,950.30
2018-06-02T09:39:43.215Z,949.74
2018-06-02T09:40:43.135Z,950.76
2018-06-02T09:41:43.048Z,949.75
2018-06-02T09:42:42.997Z,949.74
2018-06-02T09:43:42.883Z,949.38
2018-06-02T09:44:42.821Z,949.24
2018-06-02T09:45:42.720Z,949.11
2018-06-02T09:46:42.636Z,949.02
2018-06-02T09:47:42.575Z,948.94
2018-06-02T09:48:42.514Z,948.96
2018-06-02T09:49:42.389Z,948.94
2018-06-02T09:50:42.307Z,948.96
2018-06-02T09:51:42.221Z,949.01
2018-06-02T09:52:42.144Z,949.07
2018-06-02T09:53:42.088Z,949.04
2018-06-02T09:54:41.975Z,949.09
2018-06-02T09:55:41.887Z,949.67
2018-06-02T09:56:41.807Z,949.38
2018-06-02T09:57:41.735Z,949.30
2018-06-02T09:58:41.676Z,949.38
2018-06-02T09:59:41.571Z,949.30
2018-06-02T10:00:41.478Z,949.44
2018-06-02T10:01:41.390Z,949.34
2018-06-02T10:02:41.309Z,949.37
2018-06-02T10:03:41.259Z,949.29
2018-06-02T10:04:41.166Z,949.29
2018-06-02T10:05:41.062Z,949.30
2018-06-02T10:06:40.977Z,949.34
2018-06-02T10:07:40.898Z,949.31
2018-06-02T10:08:40.845Z,949.21
2018-06-02T10:09:40.728Z,949.19
2018-06-02T10:10:40.648Z,949.15
2018-06-02T10:11:40.563Z,949.11
2018-06-02T10:12:40.483Z,949.03
2018-06-02T10:13:40.429Z,948.99
2018-06-02T10:14:40.316Z,949.01
2018-06-02T10:15:40.324Z,949.05
2018-06-02T10:16:40.148Z,949.05
2018-06-02T10:17:40.069Z,949.11
2018-06-02T10:18:40.015Z,949.20
2018-06-02T10:19:39.896Z,949.24
2018-06-02T10:20:39.821Z,949.20
2018-06-02T10:21:39.766Z,949.13
2018-06-02T10:22:39.753Z,949.14
2018-06-02T10:23:39.601Z,949.10
2018-06-02T10:24:39.483Z,949.04
2018-06-02T10:25:39.413Z,948.98
2018-06-02T10:26:39.319Z,949.02
2018-06-02T10:27:39.238Z,948.94
2018-06-02T10:28:39.183Z,948.98
2018-06-02T10:29:39.214Z,948.97
2018-06-02T10:30:39.654Z,949.01
2018-06-02T10:31:38.899Z,949.01
2018-06-02T10:32:38.815Z,949.02
2018-06-02T10:33:38.767Z,949.00
2018-06-02T10:34:38.653Z,948.99
2018-06-02T10:35:38.590Z,948.97
2018-06-02T10:36:38.576Z,948.99
2018-06-02T10:37:39.154Z,949.00
2018-06-02T10:38:38.344Z,949.00
2018-06-02T10:39:38.232Z,948.99
2018-06-02T10:40:38.145Z,949.06
2018-06-02T10:41:38.064Z,949.07
2018-06-02T10:42:37.979Z,949.05
2018-06-02T10:43:38.021Z,949.09
2018-06-02T10:44:37.868Z,949.10
2018-06-02T10:45:37.727Z,949.17
2018-06-02T10:46:37.645Z,949.16
2018-06-02T10:47:37.560Z,949.15
2018-06-02T10:48:37.507Z,949.13
2018-06-02T10:49:37.390Z,949.10
2018-06-02T10:50:37.399Z,949.07
2018-06-02T10:51:37.223Z,949.09
2018-06-02T10:52:37.144Z,949.01
2018-06-02T10:53:37.055Z,949.05
2018-06-02T10:54:37.003Z,949.04
2018-06-02T10:55:37.717Z,949.09
2018-06-02T10:56:36.803Z,949.05
2018-06-02T10:57:36.810Z,949.08
2018-06-02T10:58:36.637Z,949.11
2018-06-02T10:59:36.575Z,949.18
2018-06-02T11:00:36.463Z,949.17
2018-06-02T11:01:36.382Z,949.19
2018-06-02T11:02:36.298Z,949.21
2018-06-02T11:03:36.213Z,949.15
2018-06-02T11:04:36.249Z,949.19
2018-06-02T11:05:36.049Z,949.13
2018-06-02T11:06:35.967Z,949.17
2018-06-02T11:07:35.876Z,949.20
2018-06-02T11:08:35.790Z,949.26
2018-06-02T11:09:35.741Z,949.27
2018-06-02T11:10:35.622Z,949.27
2018-06-02T11:11:35.628Z,949.27
2018-06-02T11:12:35.455Z,949.32
2018-06-02T11:13:35.370Z,949.33
2018-06-02T11:14:35.313Z,949.31
2018-06-02T11:15:36.168Z,949.30
2018-06-02T11:16:35.116Z,949.30
2018-06-02T11:17:35.032Z,949.26
2018-06-02T11:18:35.039Z,949.46
2018-06-02T11:19:34.943Z,949.38
2018-06-02T11:20:34.778Z,949.43
2018-06-02T11:21:34.695Z,949.31
2018-06-02T11:22:34.611Z,949.38
2018-06-02T11:23:34.526Z,949.64
2018-06-02T11:24:34.476Z,949.63
2018-06-02T11:25:34.451Z,949.55
2018-06-02T11:26:34.277Z,949.34
2018-06-02T11:27:34.192Z,949.29
2018-06-02T11:28:34.118Z,949.23
2018-06-02T11:29:34.059Z,949.21
2018-06-02T11:30:33.945Z,949.18
2018-06-02T11:31:33.863Z,949.13
2018-06-02T11:32:33.779Z,949.09
2018-06-02T11:33:33.696Z,949.04
2018-06-02T11:34:33.640Z,949.06
2018-06-02T11:35:34.177Z,949.03
2018-06-02T11:36:33.445Z,949.09
2018-06-02T11:37:33.368Z,949.11
2018-06-02T11:38:33.279Z,949.11
2018-06-02T11:39:33.229Z,949.14
2018-06-02T11:40:33.118Z,949.07
2018-06-02T11:41:33.032Z,949.04
2018-06-02T11:42:32.950Z,949.03
2018-06-02T11:43:32.865Z,949.02
2018-06-02T11:44:32.809Z,949.00
2018-06-02T11:45:32.700Z,948.98
2018-06-02T11:46:32.616Z,948.94
2018-06-02T11:47:32.535Z,948.97
2018-06-02T11:48:32.450Z,948.95
2018-06-02T11:49:32.405Z,948.93
2018-06-02T11:50:32.289Z,948.90
2018-06-02T11:51:32.205Z,948.91
2018-06-02T11:52:32.121Z,948.87
2018-06-02T11:53:32.037Z,948.90
2018-06-02T11:54:31.982Z,948.89
2018-06-02T11:55:31.877Z,948.86
2018-06-02T11:56:31.788Z,948.87
2018-06-02T11:57:31.704Z,948.85
2018-06-02T11:58:31.620Z,948.86
2018-06-02T11:59:32.185Z,948.84
2018-06-02T12:00:31.451Z,948.88
2018-06-02T12:01:31.372Z,948.94
2018-06-02T12:02:31.285Z,948.97
2018-06-02T12:03:31.210Z,949.03
2018-06-02T12:04:31.121Z,949.12
2018-06-02T12:05:31.064Z,949.15
2018-06-02T12:06:30.952Z,949.19
2018-06-02T12:07:30.869Z,949.25
2018-06-02T12:08:30.784Z,949.27
2018-06-02T12:09:30.704Z,949.28
2018-06-02T12:10:30.647Z,949.22
2018-06-02T12:11:30.535Z,949.25
2018-06-02T12:12:30.451Z,949.19
2018-06-02T12:13:30.366Z,949.10
2018-06-02T12:14:30.284Z,949.02
2018-06-02T12:15:30.230Z,948.93
2018-06-02T12:16:30.113Z,948.87
2018-06-02T12:17:30.030Z,948.84
2018-06-02T12:18:29.949Z,948.80
2018-06-02T12:19:29.865Z,948.83
2018-06-02T12:20:29.813Z,948.84
2018-06-02T12:21:29.712Z,948.85
2018-06-02T12:22:29.613Z,948.87
2018-06-02T12:23:29.528Z,948.88
2018-06-02T12:24:29.447Z,948.88
2018-06-02T12:25:29.395Z,948.91
2018-06-02T12:26:29.279Z,948.94
2018-06-02T12:27:29.203Z,948.99
2018-06-02T12:28:29.115Z,948.93
2018-06-02T12:29:29.027Z,948.96
2018-06-02T12:30:28.976Z,948.98
2018-06-02T12:31:28.859Z,948.96
2018-06-02T12:32:28.774Z,948.99
2018-06-02T12:33:28.692Z,949.05
2018-06-02T12:34:28.609Z,949.02
2018-06-02T12:35:28.552Z,949.00
2018-06-02T12:36:28.440Z,949.03
2018-06-02T12:37:28.363Z,949.01
2018-06-02T12:38:28.277Z,949.01
2018-06-02T12:39:28.188Z,948.98
2018-06-02T12:40:28.137Z,948.94